Overview Statistics Trail Chart Weather Telemetry Raw packets
 

This is the latest recevied weather packets stored in our database for station/object N7ZEF. If no packets are shown the sender has not sent any weather packets the latest 10 day(s).

<< 34 35 36 37 38 39 40 >>
Time Temp. Humidity Pressure Rain* Wind** Luminosity Snow
1777652008 8.33° C 44% 1025.6 hPa 0 mm - - -
1777651406 7.78° C 46% 1025.6 hPa 0 mm - - -
1777650805 7.22° C 45% 1025.6 hPa 0 mm - - -
1777650204 6.67° C 47% 1025.6 hPa 0 mm - - -
1777649602 6.11° C 50% 1025.6 hPa 0 mm - - -
1777649001 5.56° C 51% 1025.8 hPa 0 mm - - -
1777648400 5.56° C 51% 1025.8 hPa 0 mm - - -
1777647798 5.56° C 51% 1025.8 hPa 0 mm - - -
1777647197 5° C 55% 1025.8 hPa 0 mm - - -
1777646610 3.33° C 59% 1025.8 hPa 0 mm - - -
1777645994 2.22° C 66% 1025.6 hPa 0 mm - - -
1777645393 1.67° C 72% 1025.6 hPa 0 mm - - -
1777644791 0.56° C 75% 1025.6 hPa 0 mm - - -
1777644190 0° C 77% 1025.6 hPa 0 mm - - -
1777643589 -0.56° C 79% 1025.5 hPa 0 mm - - -
1777642987 -1.67° C 81% 1025.5 hPa 0 mm - - -
1777642392 -2.22° C 81% 1025.5 hPa 0 mm - - -
1777641785 -2.78° C 82% 1025.3 hPa 0 mm - - -
1777641183 -3.33° C 84% 1025.1 hPa 0 mm - - -
1777640582 -3.89° C 84% 1025 hPa 0 mm - - -
1777639980 -4.44° C 84% 1025 hPa 0 mm - - -
1777639379 -4.44° C 84% 1024.9 hPa 0 mm - - -
1777638778 -4.44° C 84% 1024.8 hPa 0 mm - - -
1777638176 -4.44° C 84% 1024.5 hPa 0 mm - - -
1777637575 -4.44° C 84% 1024.5 hPa 0 mm - - -

* Rain latest hour (hover to see other rain measurements)
** Current wind speed in m/s (hover to see current wind gust speed)